Time;durP1;ratioP1;P1;durP2;ratioP2;P2;SDS_P1;SDS_P2;PMS_P1;PMS_P2;Temp;Humidity;BMP_temperature;BMP_pressure;BME280_temperature;BME280_humidity;BME280_pressure;Samples;Min_cycle;Max_cycle;Signal;HPM_P1;HPM_P2
2022/12/31 00:00:57;;;;;;;;;;;;;;;6.61;100.00;96833.66;5041390;28;20019;-66
2022/12/31 00:03:23;;;;;;;;;;;;;;;6.56;100.00;96842.84;5055157;28;20553;-66
2022/12/31 00:05:48;;;;;;;;;;;;;;;6.50;100.00;96839.56;5063096;28;20035;-66
2022/12/31 00:08:13;;;;;;;;;;;;;;;6.70;100.00;96845.28;5059390;28;19921;-66
2022/12/31 00:10:40;;;;;;;;;;;;;;;6.44;100.00;96835.44;5063800;28;20011;-65
2022/12/31 00:13:06;;;;;;;;;;;;;;;6.58;100.00;96850.69;5058831;28;19926;-66
2022/12/31 00:15:32;;;;;;;;;;;;;;;6.41;100.00;96843.47;5063834;28;20365;-67
2022/12/31 00:17:57;;;;;;;;;;;;;;;6.23;100.00;96843.69;5064214;28;19923;-66
2022/12/31 00:20:22;;;;;;;;;;;;;;;6.19;100.00;96847.38;5063238;28;20677;-66
2022/12/31 00:22:48;;;;;;;;;;;;;;;6.07;100.00;96856.31;5068561;28;19925;-66
2022/12/31 00:25:13;;;;;;;;;;;;;;;6.16;100.00;96865.19;5059341;28;19924;-66
2022/12/31 00:27:38;;;;;;;;;;;;;;;6.06;100.00;96851.97;5063081;28;20312;-66
2022/12/31 00:30:04;;;;;;;;;;;;;;;5.99;100.00;96857.94;5060650;28;19917;-64
2022/12/31 00:32:29;;;;;;;;;;;;;;;5.91;100.00;96856.09;5063821;28;20003;-65
2022/12/31 00:34:54;;;;;;;;;;;;;;;5.89;100.00;96867.28;5064450;28;19926;-65
2022/12/31 00:37:20;;;;;;;;;;;;;;;5.86;100.00;96859.00;5058658;28;19916;-66
2022/12/31 00:39:45;;;;;;;;;;;;;;;5.75;100.00;96848.50;5064137;28;19916;-66
2022/12/31 00:42:10;;;;;;;;;;;;;;;5.87;100.00;96858.66;5059294;28;20034;-65
2022/12/31 00:44:35;;;;;;;;;;;;;;;5.96;100.00;96866.78;5065284;28;19921;-65
2022/12/31 00:47:01;;;;;;;;;;;;;;;6.08;100.00;96863.31;5070222;28;19951;-65
2022/12/31 00:49:26;;;;;;;;;;;;;;;6.15;100.00;96855.41;5057985;28;19921;-64
2022/12/31 00:51:51;;;;;;;;;;;;;;;6.13;100.00;96860.41;5063411;28;19920;-69
2022/12/31 00:54:16;;;;;;;;;;;;;;;6.16;100.00;96853.47;5022453;28;19950;-68
2022/12/31 00:56:42;;;;;;;;;;;;;;;6.11;100.00;96849.06;5042467;28;19921;-68
2022/12/31 00:59:07;;;;;;;;;;;;;;;5.96;100.00;96855.09;5042268;28;19966;-69
2022/12/31 01:01:36;;;;;;;;;;;;;;;5.93;100.00;96846.44;5057675;28;20374;-68
2022/12/31 01:04:04;;;;;;;;;;;;;;;5.92;100.00;96855.75;5042114;28;19917;-68
2022/12/31 01:06:29;;;;;;;;;;;;;;;5.94;100.00;96853.50;5041207;28;19917;-70
2022/12/31 01:08:54;;;;;;;;;;;;;;;5.97;100.00;96851.25;5042742;28;19924;-68
2022/12/31 01:11:23;;;;;;;;;;;;;;;6.00;100.00;96850.59;5037425;28;19923;-69
2022/12/31 01:13:52;;;;;;;;;;;;;;;6.04;100.00;96854.25;5043690;28;20019;-68
2022/12/31 01:16:18;;;;;;;;;;;;;;;6.04;100.00;96860.47;5037009;28;20023;-68
2022/12/31 01:18:43;;;;;;;;;;;;;;;6.08;100.00;96857.88;5043444;28;20015;-68
2022/12/31 01:21:10;;;;;;;;;;;;;;;6.12;100.00;96872.38;5037905;28;20008;-68
2022/12/31 01:23:35;;;;;;;;;;;;;;;6.26;100.00;96874.84;5043393;28;19917;-68
2022/12/31 01:26:05;;;;;;;;;;;;;;;6.40;100.00;96886.22;5041524;28;19917;-68
2022/12/31 01:28:31;;;;;;;;;;;;;;;6.44;100.00;96887.13;5041587;28;20281;-69
2022/12/31 01:30:56;;;;;;;;;;;;;;;6.39;100.00;96878.41;5041112;28;20011;-70
2022/12/31 01:33:22;;;;;;;;;;;;;;;6.37;100.00;96892.34;5037123;28;19983;-70
2022/12/31 01:35:48;;;;;;;;;;;;;;;6.40;100.00;96886.22;5023521;28;20008;-70
2022/12/31 01:38:13;;;;;;;;;;;;;;;6.39;100.00;96883.84;5037049;28;20065;-70
2022/12/31 01:40:39;;;;;;;;;;;;;;;6.38;100.00;96885.78;5042324;28;19925;-70
2022/12/31 01:43:13;;;;;;;;;;;;;;;6.41;100.00;96893.28;5038023;28;20038;-67
2022/12/31 01:45:40;;;;;;;;;;;;;;;6.41;100.00;96879.66;5042350;28;20027;-66
2022/12/31 01:48:07;;;;;;;;;;;;;;;6.34;100.00;96884.84;5038019;28;19920;-66
2022/12/31 01:50:34;;;;;;;;;;;;;;;6.26;100.00;96877.56;5041723;28;20025;-66
2022/12/31 01:53:01;;;;;;;;;;;;;;;6.23;100.00;96881.75;5051291;28;19920;-66
2022/12/31 01:55:30;;;;;;;;;;;;;;;6.26;100.00;96883.00;5024488;28;19917;-66
2022/12/31 01:58:03;;;;;;;;;;;;;;;6.35;100.00;96875.56;5056736;28;19927;-66
2022/12/31 02:00:28;;;;;;;;;;;;;;;6.34;100.00;96875.88;5029708;28;19928;-67
2022/12/31 02:02:54;;;;;;;;;;;;;;;6.42;100.00;96875.00;5073982;28;19921;-66
2022/12/31 02:05:26;;;;;;;;;;;;;;;6.40;100.00;96869.13;5059088;28;19920;-67
2022/12/31 02:07:53;;;;;;;;;;;;;;;6.42;100.00;96864.91;5061842;28;19951;-67
2022/12/31 02:10:18;;;;;;;;;;;;;;;6.36;100.00;96874.44;5059183;28;19974;-66
2022/12/31 02:12:43;;;;;;;;;;;;;;;6.37;100.00;96877.94;5062415;28;19916;-67
2022/12/31 02:15:09;;;;;;;;;;;;;;;6.29;100.00;96880.41;5056663;28;19923;-66
2022/12/31 02:17:48;;;;;;;;;;;;;;;6.38;100.00;96871.38;5060669;28;19923;-67
2022/12/31 02:20:28;;;;;;;;;;;;;;;6.46;100.00;96870.47;5057741;28;19923;-67
2022/12/31 02:22:56;;;;;;;;;;;;;;;6.16;100.00;96867.91;5063015;28;19936;-68
2022/12/31 02:25:22;;;;;;;;;;;;;;;6.38;100.00;96876.81;5057659;28;19949;-67
2022/12/31 02:27:56;;;;;;;;;;;;;;;6.66;100.00;96868.84;5061111;28;19932;-67
2022/12/31 02:30:23;;;;;;;;;;;;;;;6.75;100.00;96863.31;5061597;28;19924;-68
2022/12/31 02:32:57;;;;;;;;;;;;;;;6.83;100.00;96871.38;5066909;28;19925;-67
2022/12/31 02:35:27;;;;;;;;;;;;;;;7.01;100.00;96877.41;5055892;28;19920;-69
2022/12/31 02:37:56;;;;;;;;;;;;;;;7.13;100.00;96892.16;5061447;28;20019;-70
2022/12/31 02:40:22;;;;;;;;;;;;;;;7.19;100.00;96875.28;5057900;28;22035;-68
2022/12/31 02:42:47;;;;;;;;;;;;;;;7.30;100.00;96877.56;5061903;28;20041;-68
2022/12/31 02:45:14;;;;;;;;;;;;;;;7.39;100.00;96886.41;5056991;28;19916;-65
2022/12/31 02:47:58;;;;;;;;;;;;;;;7.41;100.00;96878.69;5060934;28;19924;-69
2022/12/31 02:50:30;;;;;;;;;;;;;;;7.44;100.00;96886.19;5057750;28;19959;-66
2022/12/31 02:52:55;;;;;;;;;;;;;;;7.45;100.00;96863.22;5061255;28;19916;-66
2022/12/31 02:55:30;;;;;;;;;;;;;;;7.50;100.00;96889.47;5045384;28;20153;-66
2022/12/31 02:58:14;;;;;;;;;;;;;;;7.58;100.00;96875.72;5041820;28;20366;-66
2022/12/31 03:03:28;;;;;;;;;;;;;;;7.74;100.00;96900.34;5020522;28;20305;-68
2022/12/31 03:05:54;;;;;;;;;;;;;;;7.76;100.00;96892.63;5040633;28;19920;-67
2022/12/31 03:08:20;;;;;;;;;;;;;;;7.84;100.00;96890.91;5035947;28;19948;-67
2022/12/31 03:10:46;;;;;;;;;;;;;;;7.90;100.00;96883.28;5024330;28;19964;-68
2022/12/31 03:13:11;;;;;;;;;;;;;;;7.90;100.00;96875.88;5038525;28;19966;-68
2022/12/31 03:15:37;;;;;;;;;;;;;;;7.73;100.00;96874.22;5041372;28;19924;-68
2022/12/31 03:18:13;;;;;;;;;;;;;;;7.64;100.00;96882.53;5039180;28;19917;-66
2022/12/31 03:23:31;;;;;;;;;;;;;;;7.74;100.00;96875.00;5039190;28;19928;-68
2022/12/31 03:25:57;;;;;;;;;;;;;;;7.77;100.00;96886.00;5040472;28;20028;-68
2022/12/31 03:28:25;;;;;;;;;;;;;;;7.90;100.00;96896.91;5035478;28;19936;-68
2022/12/31 03:30:53;;;;;;;;;;;;;;;8.02;100.00;96905.84;5041215;28;19928;-68
2022/12/31 03:33:19;;;;;;;;;;;;;;;8.11;100.00;96899.47;5036849;28;20435;-66
2022/12/31 03:35:45;;;;;;;;;;;;;;;8.09;100.00;96899.03;5039665;28;19920;-65
2022/12/31 03:38:10;;;;;;;;;;;;;;;8.02;100.00;96905.84;5036625;28;20317;-66
2022/12/31 03:40:38;;;;;;;;;;;;;;;8.08;100.00;96911.06;5044031;28;19917;-69
2022/12/31 03:43:03;;;;;;;;;;;;;;;8.14;100.00;96910.50;5041404;28;19916;-67
2022/12/31 03:45:29;;;;;;;;;;;;;;;8.12;100.00;96903.78;5024187;28;19978;-68
2022/12/31 03:47:54;;;;;;;;;;;;;;;8.20;100.00;96917.28;5045524;28;20011;-67
2022/12/31 03:50:20;;;;;;;;;;;;;;;8.20;100.00;96909.09;5039770;28;19984;-68
2022/12/31 03:52:45;;;;;;;;;;;;;;;8.19;100.00;96923.09;5068029;28;19920;-66
2022/12/31 03:55:11;;;;;;;;;;;;;;;8.22;100.00;96925.13;5051380;28;20336;-66
2022/12/31 03:57:37;;;;;;;;;;;;;;;8.16;100.00;96918.34;5047358;28;19948;-68
2022/12/31 04:00:04;;;;;;;;;;;;;;;8.14;100.00;96913.22;5048406;28;19964;-65
2022/12/31 04:02:29;;;;;;;;;;;;;;;8.18;100.00;96921.50;5045343;28;19920;-67
2022/12/31 04:04:54;;;;;;;;;;;;;;;8.30;100.00;96923.41;5044404;28;19916;-68
2022/12/31 04:07:20;;;;;;;;;;;;;;;8.30;100.00;96917.94;5039066;28;19931;-67
2022/12/31 04:09:45;;;;;;;;;;;;;;;8.35;100.00;96915.75;5042990;28;19921;-67
2022/12/31 04:12:10;;;;;;;;;;;;;;;8.33;100.00;96914.53;5038371;28;20401;-67
2022/12/31 04:14:36;;;;;;;;;;;;;;;8.32;100.00;96913.75;5046142;28;19924;-68
2022/12/31 04:17:01;;;;;;;;;;;;;;;8.34;100.00;96911.44;5043791;28;20429;-68
2022/12/31 04:19:26;;;;;;;;;;;;;;;8.46;100.00;96920.75;5040558;28;19925;-67
2022/12/31 04:21:51;;;;;;;;;;;;;;;8.54;100.00;96917.88;5044768;28;19964;-66
2022/12/31 04:24:17;;;;;;;;;;;;;;;8.82;100.00;96922.53;5039526;28;20305;-67
2022/12/31 04:26:42;;;;;;;;;;;;;;;9.05;100.00;96932.88;5041603;28;19917;-70
2022/12/31 04:29:08;;;;;;;;;;;;;;;9.21;100.00;96941.88;5039055;28;19948;-72
2022/12/31 04:31:33;;;;;;;;;;;;;;;9.29;100.00;96934.66;5063463;28;19916;-70
2022/12/31 04:33:59;;;;;;;;;;;;;;;9.37;100.00;96933.69;5046757;28;19927;-72
2022/12/31 04:36:24;;;;;;;;;;;;;;;9.28;100.00;96942.06;5020263;28;20353;-72
2022/12/31 04:38:49;;;;;;;;;;;;;;;8.86;100.00;96939.81;5044038;28;19923;-72
2022/12/31 04:41:17;;;;;;;;;;;;;;;8.41;100.00;96943.63;5038038;28;19956;-71
2022/12/31 04:43:44;;;;;;;;;;;;;;;8.17;100.00;96941.75;5043593;28;19935;-71
2022/12/31 04:46:09;;;;;;;;;;;;;;;8.09;100.00;96945.41;5038745;28;20278;-71
2022/12/31 04:48:34;;;;;;;;;;;;;;;7.98;100.00;96939.63;5043616;28;19921;-71
2022/12/31 04:51:00;;;;;;;;;;;;;;;7.87;100.00;96957.56;5025129;28;19921;-71
2022/12/31 04:53:25;;;;;;;;;;;;;;;7.93;100.00;96961.69;5050588;28;20015;-71
2022/12/31 04:55:50;;;;;;;;;;;;;;;7.82;100.00;96966.81;5036706;28;19924;-71
2022/12/31 04:58:16;;;;;;;;;;;;;;;7.87;100.00;96963.84;5049341;28;19917;-71
2022/12/31 05:00:43;;;;;;;;;;;;;;;7.85;100.00;96966.13;5044616;28;19920;-70
2022/12/31 05:03:08;;;;;;;;;;;;;;;7.75;100.00;96966.56;5039937;28;19929;-72
2022/12/31 05:05:37;;;;;;;;;;;;;;;7.62;100.00;96969.31;5042836;28;20370;-71
2022/12/31 05:08:03;;;;;;;;;;;;;;;7.74;100.00;96962.25;5039877;28;19967;-71
2022/12/31 05:10:28;;;;;;;;;;;;;;;7.83;100.00;96966.47;5023577;28;19967;-71
2022/12/31 05:12:53;;;;;;;;;;;;;;;7.76;100.00;96971.69;5026640;28;19933;-71
2022/12/31 05:15:19;;;;;;;;;;;;;;;7.70;100.00;96986.69;5037566;28;19932;-71
2022/12/31 05:17:44;;;;;;;;;;;;;;;7.66;100.00;96978.38;5042649;28;20441;-72
2022/12/31 05:20:09;;;;;;;;;;;;;;;7.66;100.00;96983.03;5036440;28;20349;-70
2022/12/31 05:22:34;;;;;;;;;;;;;;;7.61;100.00;96983.28;5041590;28;19920;-70
2022/12/31 05:25:00;;;;;;;;;;;;;;;7.61;100.00;96994.16;5043098;28;19924;-70
2022/12/31 05:27:26;;;;;;;;;;;;;;;7.57;100.00;96979.63;5019437;28;19925;-70
2022/12/31 05:29:51;;;;;;;;;;;;;;;7.38;100.00;96975.53;5041500;28;19917;-70
2022/12/31 05:32:16;;;;;;;;;;;;;;;7.28;100.00;96978.69;5037967;28;19916;-70
2022/12/31 05:34:42;;;;;;;;;;;;;;;7.31;100.00;96972.59;5043027;28;20255;-70
2022/12/31 05:37:08;;;;;;;;;;;;;;;7.44;100.00;96970.66;5036876;28;19924;-68
2022/12/31 05:39:33;;;;;;;;;;;;;;;7.35;100.00;96968.03;5061690;28;19925;-72
2022/12/31 05:41:58;;;;;;;;;;;;;;;7.40;100.00;96978.72;5043969;28;19921;-72
2022/12/31 05:44:23;;;;;;;;;;;;;;;7.43;100.00;96977.22;5038493;28;19921;-72
2022/12/31 05:46:48;;;;;;;;;;;;;;;7.57;100.00;96974.97;5042420;28;19967;-70
2022/12/31 05:49:14;;;;;;;;;;;;;;;7.53;100.00;96962.38;5037403;28;20370;-71
2022/12/31 05:51:39;;;;;;;;;;;;;;;7.77;100.00;96964.31;5044229;28;19916;-70
2022/12/31 05:54:04;;;;;;;;;;;;;;;7.76;100.00;96976.34;5048755;28;19916;-70
2022/12/31 05:56:30;;;;;;;;;;;;;;;7.62;100.00;96961.13;5024939;28;19917;-71
2022/12/31 05:58:55;;;;;;;;;;;;;;;7.54;100.00;96966.69;5045032;28;19921;-71
2022/12/31 06:01:21;;;;;;;;;;;;;;;7.55;100.00;96966.34;5053039;28;20720;-71
2022/12/31 06:03:46;;;;;;;;;;;;;;;7.68;100.00;96972.59;5042256;28;19921;-71
2022/12/31 06:06:11;;;;;;;;;;;;;;;7.77;100.00;96975.22;5035680;28;19921;-71
2022/12/31 06:08:36;;;;;;;;;;;;;;;7.76;100.00;97001.69;5049756;28;19924;-71
2022/12/31 06:11:02;;;;;;;;;;;;;;;7.83;100.00;96998.38;5051943;28;19917;-71
2022/12/31 06:13:27;;;;;;;;;;;;;;;7.78;100.00;96999.41;5039901;28;19960;-72
2022/12/31 06:15:53;;;;;;;;;;;;;;;7.73;100.00;97004.31;5041358;28;19920;-72
2022/12/31 06:18:18;;;;;;;;;;;;;;;7.72;100.00;97008.94;5037471;28;20415;-72
2022/12/31 06:20:43;;;;;;;;;;;;;;;7.80;100.00;97013.50;5042589;28;20501;-72
2022/12/31 06:23:09;;;;;;;;;;;;;;;7.77;100.00;97008.72;5037163;28;19923;-74
2022/12/31 06:25:35;;;;;;;;;;;;;;;7.69;100.00;97009.63;5023339;28;19920;-71
2022/12/31 06:28:01;;;;;;;;;;;;;;;7.69;100.00;97006.09;5041528;28;19921;-71
2022/12/31 06:30:26;;;;;;;;;;;;;;;7.69;100.00;97004.19;5036893;28;19970;-72
2022/12/31 06:32:53;;;;;;;;;;;;;;;7.72;100.00;97011.66;5023551;28;19916;-72
2022/12/31 06:35:18;;;;;;;;;;;;;;;7.66;100.00;97005.66;5037130;28;20497;-72
2022/12/31 06:37:43;;;;;;;;;;;;;;;7.72;100.00;97008.16;5023777;28;19916;-72
2022/12/31 06:40:09;;;;;;;;;;;;;;;7.76;100.00;97009.06;5036965;28;20384;-72
2022/12/31 06:42:34;;;;;;;;;;;;;;;7.78;100.00;97017.72;5042074;28;19921;-73
2022/12/31 06:45:00;;;;;;;;;;;;;;;7.87;100.00;97012.13;5041475;28;20311;-73
2022/12/31 06:47:25;;;;;;;;;;;;;;;7.76;100.00;97011.78;5035547;28;20007;-73
2022/12/31 06:49:51;;;;;;;;;;;;;;;7.72;100.00;97008.16;5041297;28;19989;-72
2022/12/31 06:52:16;;;;;;;;;;;;;;;7.64;100.00;97015.31;5038057;28;19917;-71
2022/12/31 06:54:42;;;;;;;;;;;;;;;7.64;100.00;97015.31;5057155;28;19916;-71
2022/12/31 06:57:08;;;;;;;;;;;;;;;7.66;100.00;97010.31;5035604;28;19962;-71
2022/12/31 06:59:33;;;;;;;;;;;;;;;7.68;100.00;97001.78;5041873;28;19939;-71
2022/12/31 07:02:12;;;;;;;;;;;;;;;7.65;100.00;97003.25;5042079;28;19986;-72
2022/12/31 07:04:56;;;;;;;;;;;;;;;7.66;100.00;96996.69;5041195;28;20263;-72
2022/12/31 07:07:32;;;;;;;;;;;;;;;7.65;100.00;97016.88;5036095;28;19921;-73
2022/12/31 07:10:23;;;;;;;;;;;;;;;7.59;100.00;97010.06;5060002;28;19976;-72
2022/12/31 07:12:52;;;;;;;;;;;;;;;7.64;100.00;97016.09;5040316;28;20035;-72
2022/12/31 07:15:43;;;;;;;;;;;;;;;7.59;100.00;97020.97;5037897;28;19923;-72
2022/12/31 07:18:14;;;;;;;;;;;;;;;7.54;100.00;97029.38;5031159;28;19968;-73
2022/12/31 07:20:40;;;;;;;;;;;;;;;7.45;100.00;97018.56;5028037;28;20011;-72
2022/12/31 07:23:06;;;;;;;;;;;;;;;7.44;100.00;97023.22;5041143;28;20028;-71
2022/12/31 07:25:33;;;;;;;;;;;;;;;7.50;100.00;97023.81;5044901;28;20336;-71
2022/12/31 07:28:08;;;;;;;;;;;;;;;7.48;100.00;97034.25;5060184;28;20023;-72
2022/12/31 07:30:47;;;;;;;;;;;;;;;7.47;100.00;97030.75;5050230;28;19916;-72
2022/12/31 07:33:31;;;;;;;;;;;;;;;7.40;100.00;97029.69;5042158;28;19917;-71
2022/12/31 07:35:56;;;;;;;;;;;;;;;7.38;100.00;97023.78;5043096;28;19921;-70
2022/12/31 07:38:26;;;;;;;;;;;;;;;7.40;100.00;97024.22;5040330;28;20420;-70
2022/12/31 07:40:58;;;;;;;;;;;;;;;7.41;100.00;97026.63;5056362;28;19921;-70
2022/12/31 07:43:38;;;;;;;;;;;;;;;7.47;100.00;97035.38;5040695;28;19917;-70
2022/12/31 07:46:03;;;;;;;;;;;;;;;7.58;100.00;97022.09;5040291;28;20031;-69
2022/12/31 07:48:29;;;;;;;;;;;;;;;7.51;100.00;97019.97;5025565;28;20424;-70
2022/12/31 07:50:55;;;;;;;;;;;;;;;7.48;100.00;97015.16;5043998;28;19917;-70
2022/12/31 07:53:21;;;;;;;;;;;;;;;7.43;100.00;97023.56;5054869;28;19917;-71
2022/12/31 07:55:52;;;;;;;;;;;;;;;7.47;100.00;97029.91;5046893;28;19921;-71
2022/12/31 07:58:23;;;;;;;;;;;;;;;7.62;100.00;97040.19;5067138;28;19928;-71
2022/12/31 08:00:50;;;;;;;;;;;;;;;7.68;100.00;97038.03;5055297;28;19924;-70
2022/12/31 08:03:23;;;;;;;;;;;;;;;7.74;100.00;97035.88;5040519;28;20010;-71
2022/12/31 08:06:07;;;;;;;;;;;;;;;7.72;100.00;97033.47;5043633;28;19960;-71
2022/12/31 08:08:44;;;;;;;;;;;;;;;7.70;100.00;97022.13;5043993;28;19921;-71
2022/12/31 08:11:21;;;;;;;;;;;;;;;7.82;100.00;97034.97;5039573;28;19928;-71
2022/12/31 08:13:46;;;;;;;;;;;;;;;7.99;100.00;97033.94;5044145;28;20390;-71
2022/12/31 08:16:12;;;;;;;;;;;;;;;8.13;100.00;97045.31;5021496;28;19963;-71
2022/12/31 08:18:38;;;;;;;;;;;;;;;8.09;100.00;97058.03;5043766;28;19921;-71
2022/12/31 08:21:13;;;;;;;;;;;;;;;8.02;100.00;97055.88;5040182;28;19924;-71
2022/12/31 08:23:48;;;;;;;;;;;;;;;8.13;100.00;97060.88;5025807;28;19929;-71
2022/12/31 08:26:14;;;;;;;;;;;;;;;8.10;100.00;97056.09;5039007;28;19932;-71
2022/12/31 08:28:45;;;;;;;;;;;;;;;8.09;100.00;97054.53;5044373;28;19921;-71
2022/12/31 08:31:13;;;;;;;;;;;;;;;8.08;100.00;97059.16;5021926;28;19924;-73
2022/12/31 08:33:41;;;;;;;;;;;;;;;8.06;100.00;97049.75;5044440;28;19931;-74
2022/12/31 08:36:23;;;;;;;;;;;;;;;7.97;100.00;97047.13;5039309;28;19917;-72
2022/12/31 08:38:51;;;;;;;;;;;;;;;7.88;100.00;97060.09;5043983;28;20382;-73
2022/12/31 08:41:22;;;;;;;;;;;;;;;7.75;100.00;97056.56;5060226;28;19921;-74
2022/12/31 08:43:56;;;;;;;;;;;;;;;7.99;100.00;97056.56;5044520;28;19965;-74
2022/12/31 08:46:31;;;;;;;;;;;;;;;8.45;100.00;97055.66;5037555;28;20996;-73
2022/12/31 08:48:56;;;;;;;;;;;;;;;8.41;100.00;97061.00;5043437;28;20271;-70
2022/12/31 08:51:24;;;;;;;;;;;;;;;7.89;100.00;97070.66;5040585;28;19936;-71
2022/12/31 08:53:50;;;;;;;;;;;;;;;7.96;100.00;97070.06;5060453;28;20343;-71
2022/12/31 08:56:24;;;;;;;;;;;;;;;7.61;100.00;97071.28;5022519;28;19920;-75
2022/12/31 08:59:08;;;;;;;;;;;;;;;7.74;100.00;97071.31;5026981;28;19925;-72
2022/12/31 09:01:53;;;;;;;;;;;;;;;7.84;100.00;97070.88;5041025;28;20011;-73
2022/12/31 09:04:24;;;;;;;;;;;;;;;8.16;100.00;97061.00;5039412;28;20015;-73
2022/12/31 09:06:55;;;;;;;;;;;;;;;8.29;100.00;97055.53;5044152;28;19979;-73
2022/12/31 09:09:26;;;;;;;;;;;;;;;8.40;100.00;97051.97;5039495;28;19917;-73
2022/12/31 09:12:03;;;;;;;;;;;;;;;8.43;100.00;97039.63;5057021;28;19921;-73
2022/12/31 09:14:28;;;;;;;;;;;;;;;8.51;100.00;97043.34;5041053;28;19975;-74
2022/12/31 09:17:02;;;;;;;;;;;;;;;8.75;100.00;97043.31;5042952;28;20290;-72
2022/12/31 09:19:27;;;;;;;;;;;;;;;9.15;100.00;97045.19;5039880;28;19921;-73
2022/12/31 09:21:53;;;;;;;;;;;;;;;9.65;100.00;97047.66;5043673;28;20325;-74
2022/12/31 09:24:18;;;;;;;;;;;;;;;10.08;100.00;97055.00;5038838;28;19921;-73
2022/12/31 09:27:02;;;;;;;;;;;;;;;10.81;100.00;97052.72;5041318;28;19939;-73
2022/12/31 09:29:27;;;;;;;;;;;;;;;11.47;100.00;97059.13;5038410;28;19925;-73
2022/12/31 09:31:56;;;;;;;;;;;;;;;12.20;100.00;97061.94;5056240;28;19916;-74
2022/12/31 09:34:26;;;;;;;;;;;;;;;12.80;100.00;97063.19;5037621;28;20031;-71
2022/12/31 09:36:56;;;;;;;;;;;;;;;12.98;100.00;97068.94;5042032;28;19917;-72
2022/12/31 09:39:29;;;;;;;;;;;;;;;14.21;99.24;97065.53;5054622;28;19970;-73
2022/12/31 09:42:04;;;;;;;;;;;;;;;14.67;93.84;97060.34;5044368;28;19917;-72
2022/12/31 09:44:32;;;;;;;;;;;;;;;15.49;91.83;97059.13;5059620;28;19921;-74
2022/12/31 09:47:00;;;;;;;;;;;;;;;16.00;86.46;97060.81;5043813;28;19932;-75
2022/12/31 09:49:31;;;;;;;;;;;;;;;16.25;80.73;97063.56;5057402;28;19921;-73
2022/12/31 09:52:12;;;;;;;;;;;;;;;16.42;80.80;97070.28;5044127;28;19916;-73
2022/12/31 09:54:49;;;;;;;;;;;;;;;16.95;75.21;97070.63;5056637;28;20035;-72
2022/12/31 09:57:37;;;;;;;;;;;;;;;17.26;72.28;97070.91;5005072;28;19929;-73
2022/12/31 10:00:02;;;;;;;;;;;;;;;17.34;67.85;97064.13;5042527;28;19924;-74
2022/12/31 10:02:37;;;;;;;;;;;;;;;17.43;67.01;97061.75;5051791;28;19921;-73
2022/12/31 10:05:19;;;;;;;;;;;;;;;17.32;66.53;97064.56;5040762;28;19921;-74
2022/12/31 10:07:44;;;;;;;;;;;;;;;16.45;70.98;97057.66;5038619;28;19956;-72
2022/12/31 10:10:19;;;;;;;;;;;;;;;16.39;72.68;97056.47;5020774;28;20350;-72
2022/12/31 10:13:03;;;;;;;;;;;;;;;16.71;71.67;97045.38;5042352;28;20411;-73
2022/12/31 10:15:34;;;;;;;;;;;;;;;17.09;70.06;97042.91;5039833;28;19920;-71
2022/12/31 10:18:16;;;;;;;;;;;;;;;17.45;68.92;97045.50;5042126;28;19920;-73
2022/12/31 10:20:44;;;;;;;;;;;;;;;17.49;62.62;97054.56;5041184;28;20301;-70
2022/12/31 10:23:35;;;;;;;;;;;;;;;17.41;63.86;97055.00;5036406;28;19942;-73
2022/12/31 10:26:19;;;;;;;;;;;;;;;17.58;62.42;97056.91;5053954;28;19928;-70
2022/12/31 10:29:03;;;;;;;;;;;;;;;17.26;62.16;97055.09;5029459;28;20011;-67
2022/12/31 10:31:28;;;;;;;;;;;;;;;17.02;63.33;97048.47;5038323;28;19982;-67
2022/12/31 10:34:03;;;;;;;;;;;;;;;17.10;63.20;97043.69;5042054;28;20289;-65
2022/12/31 10:36:47;;;;;;;;;;;;;;;17.10;60.43;97044.47;5021211;28;19923;-64
2022/12/31 10:39:15;;;;;;;;;;;;;;;17.24;59.66;97037.31;5037416;28;19924;-66
2022/12/31 10:41:56;;;;;;;;;;;;;;;17.27;59.62;97033.72;5042255;28;19921;-65
2022/12/31 10:44:21;;;;;;;;;;;;;;;17.73;58.21;97029.91;5019721;28;19982;-65
2022/12/31 10:46:49;;;;;;;;;;;;;;;18.11;57.94;97030.03;5040605;28;19920;-67
2022/12/31 10:49:27;;;;;;;;;;;;;;;18.27;56.85;97027.53;5037818;28;20008;-65
2022/12/31 10:52:05;;;;;;;;;;;;;;;17.99;55.38;97016.69;5043546;28;20011;-65
2022/12/31 10:54:30;;;;;;;;;;;;;;;17.70;56.23;97014.09;5051855;28;19961;-65
2022/12/31 10:57:14;;;;;;;;;;;;;;;18.15;56.27;97014.19;5047489;28;19920;-65
2022/12/31 10:59:58;;;;;;;;;;;;;;;18.07;54.74;97004.34;5053919;28;19917;-65
2022/12/31 11:02:38;;;;;;;;;;;;;;;18.08;54.66;97001.19;5019272;28;20119;-65
2022/12/31 11:05:16;;;;;;;;;;;;;;;17.76;55.45;96993.88;5038405;28;19920;-67
2022/12/31 11:07:45;;;;;;;;;;;;;;;17.39;56.77;96994.50;5039060;28;19920;-67
2022/12/31 11:10:29;;;;;;;;;;;;;;;17.57;57.96;96992.44;5036930;28;20377;-64
2022/12/31 11:12:54;;;;;;;;;;;;;;;17.89;58.23;96994.19;5040966;28;19924;-65
2022/12/31 11:15:19;;;;;;;;;;;;;;;17.71;58.72;96994.28;5035916;28;19917;-64
2022/12/31 11:18:05;;;;;;;;;;;;;;;18.00;56.22;96996.88;5041671;28;19952;-67
2022/12/31 11:20:36;;;;;;;;;;;;;;;17.87;56.59;96991.03;5040519;28;19924;-64
2022/12/31 11:23:11;;;;;;;;;;;;;;;17.68;56.63;96997.09;5039941;28;19932;-66
2022/12/31 11:25:59;;;;;;;;;;;;;;;17.38;56.43;97001.25;5040987;28;19921;-65
2022/12/31 11:28:43;;;;;;;;;;;;;;;17.39;55.97;96981.47;5024045;28;20368;-64
2022/12/31 11:31:11;;;;;;;;;;;;;;;17.28;55.50;96985.47;5036752;28;19928;-67
2022/12/31 11:33:37;;;;;;;;;;;;;;;17.47;56.45;96982.19;5043444;28;19921;-65
2022/12/31 11:36:20;;;;;;;;;;;;;;;17.66;54.97;96980.09;5040703;28;19942;-67
2022/12/31 11:38:50;;;;;;;;;;;;;;;17.57;55.08;96975.00;5041249;28;19917;-65
2022/12/31 11:41:18;;;;;;;;;;;;;;;17.74;55.41;96965.78;5036094;28;19916;-65
2022/12/31 11:43:49;;;;;;;;;;;;;;;18.00;54.93;96952.53;5040844;28;19921;-65
2022/12/31 11:46:15;;;;;;;;;;;;;;;18.04;55.30;96956.09;5035609;28;20329;-65
2022/12/31 11:49:00;;;;;;;;;;;;;;;18.55;54.52;96964.69;5041030;28;19917;-66
2022/12/31 11:51:29;;;;;;;;;;;;;;;19.14;52.40;96966.38;5036491;28;20328;-65
2022/12/31 11:54:03;;;;;;;;;;;;;;;19.04;52.52;96959.75;5057088;28;20393;-66
2022/12/31 11:56:37;;;;;;;;;;;;;;;18.95;52.15;96953.16;5033373;28;20401;-66
2022/12/31 11:59:07;;;;;;;;;;;;;;;19.10;51.00;96948.97;5047320;28;19920;-67
2022/12/31 12:01:39;;;;;;;;;;;;;;;18.52;52.17;96940.53;5044564;28;19925;-66
2022/12/31 12:04:04;;;;;;;;;;;;;;;18.40;53.26;96944.66;5045123;28;19917;-66
2022/12/31 12:06:31;;;;;;;;;;;;;;;18.60;53.54;96942.03;5048077;28;19931;-65
2022/12/31 12:09:01;;;;;;;;;;;;;;;18.56;52.58;96940.50;5064843;28;19916;-65
2022/12/31 12:11:29;;;;;;;;;;;;;;;18.50;53.26;96935.41;5040816;28;19931;-65
2022/12/31 12:13:55;;;;;;;;;;;;;;;18.73;52.18;96936.72;5044842;28;19917;-65
2022/12/31 12:16:21;;;;;;;;;;;;;;;18.84;52.10;96933.84;5070202;28;19973;-65
2022/12/31 12:19:00;;;;;;;;;;;;;;;18.48;53.59;96943.34;5064927;28;20012;-65
2022/12/31 12:21:27;;;;;;;;;;;;;;;18.54;53.48;96932.59;5059617;28;19973;-65
2022/12/31 12:24:00;;;;;;;;;;;;;;;18.66;52.94;96931.28;5064641;28;19939;-64
2022/12/31 12:26:31;;;;;;;;;;;;;;;18.23;53.75;96926.97;5058596;28;19960;-65
2022/12/31 12:28:58;;;;;;;;;;;;;;;18.30;54.42;96926.91;5046204;28;19947;-66
2022/12/31 12:31:25;;;;;;;;;;;;;;;17.80;55.73;96912.72;5058876;28;20023;-67
2022/12/31 12:33:51;;;;;;;;;;;;;;;16.97;57.19;96905.00;5063853;28;19923;-66
2022/12/31 12:36:17;;;;;;;;;;;;;;;16.78;59.00;96912.59;5058242;28;19920;-66
2022/12/31 12:38:43;;;;;;;;;;;;;;;16.48;60.17;96909.56;5064217;28;19966;-66
2022/12/31 12:41:18;;;;;;;;;;;;;;;16.35;61.38;96911.94;5041161;28;19960;-66
2022/12/31 12:43:43;;;;;;;;;;;;;;;16.10;63.46;96920.28;5063404;28;20512;-66
2022/12/31 12:46:40;;;;;;;;;;;;;;;16.08;64.57;96912.44;5058213;28;20015;-67
2022/12/31 12:49:07;;;;;;;;;;;;;;;16.03;64.47;96910.06;5014035;28;20492;-66
2022/12/31 12:51:38;;;;;;;;;;;;;;;15.81;65.13;96914.81;5063944;28;19924;-66
2022/12/31 12:54:12;;;;;;;;;;;;;;;15.63;66.33;96915.59;5058802;28;19964;-66
2022/12/31 12:56:38;;;;;;;;;;;;;;;15.45;68.39;96906.53;5045472;28;19932;-65
2022/12/31 12:59:14;;;;;;;;;;;;;;;15.32;69.71;96902.56;5042385;28;19939;-67
2022/12/31 13:01:56;;;;;;;;;;;;;;;15.21;70.34;96897.03;5062927;28;19921;-66